Time,TemperatureF,DewpointF,PressureIn,WindDirection,WindDirectionDegrees,WindSpeedMPH,WindSpeedGustMPH,Humidity,HourlyPrecipIn,Conditions,Clouds,dailyrainin,SoftwareType,DateUTC
2013-05-22 00:00:00,63.5,55.8,29.76,WSW,238,0.0,1.0,76,0.00,RA,SKC,0.00,WeatherDisplay:10.37,2013-05-21 22:00:00,
2013-05-22 00:10:00,63.5,56.2,29.76,WSW,238,0.0,2.0,77,0.00,RA,SKC,0.00,WeatherDisplay:10.37,2013-05-21 22:10:00,
2013-05-22 00:20:00,63.6,55.9,29.75,WSW,238,0.0,3.0,76,0.00,RA,SKC,0.00,WeatherDisplay:10.37,2013-05-21 22:20:00,
2013-05-22 00:30:00,63.9,55.1,29.75,SSW,197,2.0,7.0,73,0.00,CLR,SKC,0.00,WeatherDisplay:10.37,2013-05-21 22:30:00,
2013-05-22 00:40:00,65.3,54.5,29.74,West,274,2.0,6.0,68,0.00,CLR,SKC,0.00,WeatherDisplay:10.37,2013-05-21 22:40:00,
2013-05-22 00:50:00,64.9,55.6,29.73,WSW,258,1.0,5.0,72,0.00,CLR,SKC,0.00,WeatherDisplay:10.37,2013-05-21 22:50:00,
2013-05-22 01:00:00,64.5,55.2,29.72,West,268,1.0,2.0,72,0.00,CLR,SKC,0.00,WeatherDisplay:10.37,2013-05-21 23:00:00,
2013-05-22 01:10:00,65.0,55.0,29.73,WSW,252,0.0,4.0,70,0.00,CLR,SKC,0.00,WeatherDisplay:10.37,2013-05-21 23:10:00,
2013-05-22 01:20:00,66.7,52.4,29.73,South,183,6.0,12.0,60,0.00,CLR,SKC,0.00,WeatherDisplay:10.37,2013-05-21 23:20:00,
2013-05-22 01:30:00,69.0,53.1,29.73,SSW,202,5.0,10.0,57,0.00,CLR,SKC,0.00,WeatherDisplay:10.37,2013-05-21 23:30:00,
2013-05-22 01:40:00,70.3,52.3,29.73,South,182,5.0,10.0,53,0.00,CLR,SKC,0.00,WeatherDisplay:10.37,2013-05-21 23:40:00,
2013-05-22 01:50:00,68.2,55.5,29.73,NNW,328,3.0,12.0,64,0.00,CLR,SKC,0.00,WeatherDisplay:10.37,2013-05-21 23:50:00,
2013-05-22 02:00:00,66.4,56.3,29.73,North,4,3.0,8.0,70,0.00,CLR,SKC,0.00,WeatherDisplay:10.37,2013-05-22 00:00:00,
2013-05-22 02:10:00,66.2,55.7,29.72,West,270,2.0,16.0,69,0.00,CLR,SKC,0.00,WeatherDisplay:10.37,2013-05-22 00:10:00,
2013-05-22 02:20:00,68.4,52.1,29.72,South,183,7.0,15.0,56,0.00,CLR,SKC,0.00,WeatherDisplay:10.37,2013-05-22 00:20:00,
2013-05-22 02:30:00,69.3,54.8,29.71,SSE,155,6.0,21.0,60,0.02,RA,SKC,0.02,WeatherDisplay:10.37,2013-05-22 00:30:00,
2013-05-22 02:40:00,67.5,54.4,29.70,SSE,147,3.0,12.0,63,0.00,RA,SKC,0.02,WeatherDisplay:10.37,2013-05-22 00:40:00,
2013-05-22 02:50:00,67.6,53.6,29.69,ESE,109,8.0,15.0,61,0.00,RA,SKC,0.02,WeatherDisplay:10.37,2013-05-22 00:50:00,
2013-05-22 03:00:00,68.5,53.6,29.69,SSE,150,7.0,13.0,59,0.00,CLR,SKC,0.02,WeatherDisplay:10.37,2013-05-22 01:00:00,
2013-05-22 03:10:00,69.4,53.0,29.69,SE,138,10.0,18.0,56,0.00,CLR,SKC,0.02,WeatherDisplay:10.37,2013-05-22 01:10:00,
2013-05-22 03:20:00,69.8,52.9,29.69,SSE,155,7.0,18.0,55,0.00,CLR,SKC,0.02,WeatherDisplay:10.37,2013-05-22 01:20:00,
2013-05-22 03:30:00,70.1,52.7,29.69,South,169,3.0,16.0,54,0.00,CLR,SKC,0.02,WeatherDisplay:10.37,2013-05-22 01:30:00,
2013-05-22 03:40:00,70.2,52.8,29.68,SSE,148,5.0,13.0,54,0.00,CLR,SKC,0.02,WeatherDisplay:10.37,2013-05-22 01:40:00,
2013-05-22 03:50:00,70.1,52.7,29.68,SSE,162,2.0,12.0,54,0.00,CLR,SKC,0.02,WeatherDisplay:10.37,2013-05-22 01:50:00,
2013-05-22 04:00:00,70.0,53.1,29.67,SSE,163,2.0,12.0,55,0.00,CLR,SKC,0.02,WeatherDisplay:10.37,2013-05-22 02:00:00,
2013-05-22 04:10:00,70.1,52.6,29.67,SSE,162,9.0,17.0,54,0.00,CLR,SKC,0.02,WeatherDisplay:10.37,2013-05-22 02:10:00,
2013-05-22 04:20:00,70.0,52.6,29.66,SSE,147,7.0,16.0,54,0.00,CLR,SKC,0.02,WeatherDisplay:10.37,2013-05-22 02:20:00,
2013-05-22 04:30:00,70.2,52.3,29.66,SSE,167,8.0,14.0,53,0.00,CLR,SKC,0.02,WeatherDisplay:10.37,2013-05-22 02:30:00,
2013-05-22 04:40:00,70.6,52.1,29.66,SSE,158,9.0,18.0,52,0.00,CLR,SKC,0.02,WeatherDisplay:10.37,2013-05-22 02:40:00,
2013-05-22 04:50:00,70.6,52.1,29.66,SSE,166,7.0,20.0,52,0.00,CLR,SKC,0.02,WeatherDisplay:10.37,2013-05-22 02:50:00,
2013-05-22 05:00:00,70.5,52.0,29.66,SSE,152,9.0,16.0,52,0.00,CLR,SKC,0.02,WeatherDisplay:10.37,2013-05-22 03:00:00,
2013-05-22 05:10:00,70.5,52.0,29.65,SSE,150,2.0,14.0,52,0.00,CLR,SKC,0.02,WeatherDisplay:10.37,2013-05-22 03:10:00,
2013-05-22 05:20:00,70.8,51.8,29.65,South,172,8.0,16.0,51,0.00,CLR,SKC,0.02,WeatherDisplay:10.37,2013-05-22 03:20:00,
2013-05-22 05:30:00,70.9,51.8,29.65,SSE,159,7.0,15.0,51,0.00,CLR,SKC,0.02,WeatherDisplay:10.37,2013-05-22 03:30:00,
2013-05-22 05:40:00,71.0,51.9,29.64,SSE,163,7.0,18.0,51,0.00,CLR,SKC,0.02,WeatherDisplay:10.37,2013-05-22 03:40:00,
2013-05-22 05:50:00,71.2,51.6,29.64,SE,142,7.0,18.0,50,0.00,CLR,SKC,0.02,WeatherDisplay:10.37,2013-05-22 03:50:00,
2013-05-22 06:00:00,71.3,51.7,29.64,SSE,148,8.0,16.0,50,0.00,CLR,SKC,0.02,WeatherDisplay:10.37,2013-05-22 04:00:00,
2013-05-22 06:10:00,71.4,51.8,29.64,SSE,151,9.0,17.0,50,0.00,CLR,SKC,0.02,WeatherDisplay:10.37,2013-05-22 04:10:00,
2013-05-22 06:20:00,71.5,51.3,29.64,SSE,163,5.0,17.0,49,0.00,CLR,SKC,0.02,WeatherDisplay:10.37,2013-05-22 04:20:00,
2013-05-22 06:30:00,71.6,52.0,29.64,SSE,165,9.0,20.0,50,0.00,CLR,SKC,0.02,WeatherDisplay:10.37,2013-05-22 04:30:00,
2013-05-22 06:40:00,71.7,52.1,29.64,SSE,147,7.0,18.0,50,0.00,CLR,SKC,0.02,WeatherDisplay:10.37,2013-05-22 04:40:00,
2013-05-22 06:50:00,71.6,52.0,29.64,SSE,162,6.0,13.0,50,0.00,CLR,SKC,0.02,WeatherDisplay:10.37,2013-05-22 04:50:00,
2013-05-22 07:00:00,72.0,52.3,29.64,SE,130,3.0,15.0,50,0.00,CLR,SKC,0.02,WeatherDisplay:10.37,2013-05-22 05:00:00,
2013-05-22 07:10:00,72.1,51.9,29.64,SE,138,8.0,14.0,49,0.00,CLR,SKC,0.02,WeatherDisplay:10.37,2013-05-22 05:10:00,
2013-05-22 07:20:00,72.3,52.1,29.63,SE,143,7.0,13.0,49,0.00,CLR,SKC,0.02,WeatherDisplay:10.37,2013-05-22 05:20:00,
2013-05-22 07:30:00,72.7,52.4,29.63,SE,135,2.0,14.0,49,0.00,CLR,SKC,0.02,WeatherDisplay:10.37,2013-05-22 05:30:00,
2013-05-22 07:40:00,72.8,52.5,29.63,SE,143,5.0,12.0,49,0.00,CLR,SKC,0.02,WeatherDisplay:10.37,2013-05-22 05:40:00,
2013-05-22 07:50:00,73.1,52.8,29.62,SSE,160,6.0,14.0,49,0.00,CLR,SKC,0.02,WeatherDisplay:10.37,2013-05-22 05:50:00,
2013-05-22 08:00:00,73.6,53.3,29.62,SSE,168,7.0,14.0,49,0.00,CLR,SKC,0.02,WeatherDisplay:10.37,2013-05-22 06:00:00,
2013-05-22 08:10:00,74.0,53.1,29.62,SSE,164,7.0,15.0,48,0.00,CLR,SKC,0.02,WeatherDisplay:10.37,2013-05-22 06:10:00,
2013-05-22 08:20:00,74.2,53.2,29.62,SSE,164,2.0,12.0,48,0.00,CLR,SKC,0.02,WeatherDisplay:10.37,2013-05-22 06:20:00,
2013-05-22 08:30:00,74.7,53.1,29.62,SE,130,3.0,16.0,47,0.00,CLR,SKC,0.02,WeatherDisplay:10.37,2013-05-22 06:30:00,
2013-05-22 08:40:00,75.2,53.6,29.62,SE,130,2.0,12.0,47,0.00,CLR,SKC,0.02,WeatherDisplay:10.37,2013-05-22 06:40:00,
2013-05-22 08:50:00,75.0,53.4,29.61,SSE,160,5.0,13.0,47,0.00,CLR,SKC,0.02,WeatherDisplay:10.37,2013-05-22 06:50:00,
2013-05-22 09:00:00,74.7,53.1,29.62,SSE,161,6.0,14.0,47,0.00,CLR,SKC,0.02,WeatherDisplay:10.37,2013-05-22 07:00:00,
2013-05-22 09:10:00,74.0,53.6,29.62,SE,140,3.0,13.0,49,0.00,CLR,SKC,0.02,WeatherDisplay:10.37,2013-05-22 07:10:00,
2013-05-22 09:20:00,74.8,54.4,29.62,SSE,150,3.0,12.0,49,0.00,CLR,SKC,0.02,WeatherDisplay:10.37,2013-05-22 07:20:00,
2013-05-22 09:30:00,75.8,54.7,29.62,SE,141,2.0,12.0,48,0.00,CLR,SKC,0.02,WeatherDisplay:10.37,2013-05-22 07:30:00,
2013-05-22 09:40:00,76.8,54.4,29.61,ESE,112,3.0,7.0,46,0.00,CLR,SKC,0.02,WeatherDisplay:10.37,2013-05-22 07:40:00,
2013-05-22 09:50:00,77.7,56.4,29.60,ESE,105,1.0,6.0,48,0.00,CLR,SKC,0.02,WeatherDisplay:10.37,2013-05-22 07:50:00,
2013-05-22 10:00:00,78.0,55.0,29.59,SSE,150,1.0,7.0,45,0.00,CLR,SKC,0.02,WeatherDisplay:10.37,2013-05-22 08:00:00,
2013-05-22 10:10:00,78.7,54.9,29.58,ESE,107,5.0,9.0,44,0.00,CLR,SKC,0.02,WeatherDisplay:10.37,2013-05-22 08:10:00,
2013-05-22 10:20:00,78.9,55.2,29.59,SSE,166,0.0,9.0,44,0.00,CLR,SKC,0.02,WeatherDisplay:10.37,2013-05-22 08:20:00,
2013-05-22 10:30:00,79.1,55.3,29.58,SSE,164,2.0,10.0,44,0.00,CLR,SKC,0.02,WeatherDisplay:10.37,2013-05-22 08:30:00,
2013-05-22 10:40:00,78.3,54.0,29.57,SSE,149,2.0,7.0,43,0.00,CLR,SKC,0.02,WeatherDisplay:10.37,2013-05-22 08:40:00,
2013-05-22 10:50:00,76.6,59.3,29.56,East,85,2.0,6.0,55,0.01,RA,SKC,0.03,WeatherDisplay:10.37,2013-05-22 08:50:00,
2013-05-22 11:00:00,76.8,58.4,29.55,SE,143,1.0,6.0,53,0.00,RA,SKC,0.03,WeatherDisplay:10.37,2013-05-22 09:00:00,
2013-05-22 11:10:00,78.4,55.9,29.55,SSE,159,7.0,13.0,46,0.00,RA,SKC,0.03,WeatherDisplay:10.37,2013-05-22 09:10:00,
2013-05-22 11:20:00,79.2,55.4,29.54,SSE,158,7.0,15.0,44,0.00,CLR,SKC,0.03,WeatherDisplay:10.37,2013-05-22 09:20:00,
2013-05-22 11:30:00,80.3,55.8,29.53,SE,131,2.0,13.0,43,0.00,CLR,SKC,0.03,WeatherDisplay:10.37,2013-05-22 09:30:00,
2013-05-22 11:40:00,81.2,55.3,29.52,ESE,107,6.0,14.0,41,0.00,CLR,SKC,0.03,WeatherDisplay:10.37,2013-05-22 09:40:00,
2013-05-22 11:50:00,81.6,54.9,29.51,ESE,110,6.0,17.0,40,0.00,CLR,SKC,0.03,WeatherDisplay:10.37,2013-05-22 09:50:00,
2013-05-22 12:00:00,81.6,55.7,29.50,SE,130,6.0,13.0,41,0.00,CLR,SKC,0.03,WeatherDisplay:10.37,2013-05-22 10:00:00,
2013-05-22 12:10:00,82.1,55.4,29.50,East,100,5.0,16.0,40,0.00,CLR,SKC,0.03,WeatherDisplay:10.37,2013-05-22 10:10:00,
2013-05-22 12:20:00,80.9,54.3,29.49,ESE,103,6.0,18.0,40,0.00,CLR,SKC,0.03,WeatherDisplay:10.37,2013-05-22 10:20:00,
2013-05-22 12:30:00,79.5,54.4,29.52,SSE,152,3.0,18.0,42,0.00,CLR,SKC,0.03,WeatherDisplay:10.37,2013-05-22 10:30:00,
2013-05-22 12:40:00,78.8,56.9,29.49,SE,127,8.0,18.0,47,0.00,CLR,SKC,0.03,WeatherDisplay:10.37,2013-05-22 10:40:00,
2013-05-22 12:50:00,79.6,55.8,29.46,SE,138,8.0,18.0,44,0.00,CLR,SKC,0.03,WeatherDisplay:10.37,2013-05-22 10:50:00,
2013-05-22 13:00:00,80.1,57.5,29.47,SSE,151,2.0,22.0,46,0.00,CLR,SKC,0.03,WeatherDisplay:10.37,2013-05-22 11:00:00,
2013-05-22 13:10:00,79.9,56.7,29.45,SE,138,8.0,14.0,45,0.00,CLR,SKC,0.03,WeatherDisplay:10.37,2013-05-22 11:10:00,
2013-05-22 13:20:00,80.1,56.2,29.45,East,90,7.0,18.0,44,0.00,CLR,SKC,0.03,WeatherDisplay:10.37,2013-05-22 11:20:00,
2013-05-22 13:30:00,81.0,55.7,29.44,East,87,6.0,15.0,42,0.00,CLR,SKC,0.03,WeatherDisplay:10.37,2013-05-22 11:30:00,
2013-05-22 13:40:00,82.1,56.0,29.43,SE,140,7.0,16.0,41,0.00,CLR,SKC,0.03,WeatherDisplay:10.37,2013-05-22 11:40:00,
2013-05-22 13:50:00,83.2,55.7,29.43,ESE,121,5.0,13.0,39,0.00,CLR,SKC,0.03,WeatherDisplay:10.37,2013-05-22 11:50:00,
2013-05-22 14:00:00,83.9,56.3,29.43,SSE,162,5.0,15.0,39,0.00,CLR,SKC,0.03,WeatherDisplay:10.37,2013-05-22 12:00:00,
2013-05-22 14:10:00,84.6,56.2,29.42,South,187,7.0,15.0,38,0.00,CLR,SKC,0.03,WeatherDisplay:10.37,2013-05-22 12:10:00,
2013-05-22 14:20:00,84.3,56.7,29.42,SSE,159,1.0,22.0,39,0.00,CLR,SKC,0.03,WeatherDisplay:10.37,2013-05-22 12:20:00,
2013-05-22 14:30:00,84.3,56.6,29.41,ESE,108,6.0,14.0,39,0.00,CLR,SKC,0.03,WeatherDisplay:10.37,2013-05-22 12:30:00,
2013-05-22 14:40:00,84.1,56.5,29.41,SE,127,8.0,18.0,39,0.00,CLR,SKC,0.03,WeatherDisplay:10.37,2013-05-22 12:40:00,
2013-05-22 14:50:00,83.9,57.0,29.39,SSE,148,5.0,20.0,40,0.00,CLR,SKC,0.03,WeatherDisplay:10.37,2013-05-22 12:50:00,
2013-05-22 15:00:00,84.0,57.8,29.39,ESE,118,5.0,16.0,41,0.00,CLR,SKC,0.03,WeatherDisplay:10.37,2013-05-22 13:00:00,
2013-05-22 15:10:00,84.1,57.2,29.38,SSE,152,7.0,17.0,40,0.00,CLR,SKC,0.03,WeatherDisplay:10.37,2013-05-22 13:10:00,
2013-05-22 15:20:00,84.0,57.8,29.38,SE,130,7.0,21.0,41,0.00,CLR,SKC,0.03,WeatherDisplay:10.37,2013-05-22 13:20:00,
2013-05-22 15:30:00,84.0,57.8,29.37,SE,136,9.0,20.0,41,0.00,CLR,SKC,0.03,WeatherDisplay:10.37,2013-05-22 13:30:00,
2013-05-22 15:40:00,83.4,58.5,29.36,ESE,117,9.0,27.0,43,0.00,CLR,SKC,0.03,WeatherDisplay:10.37,2013-05-22 13:40:00,
2013-05-22 15:50:00,82.9,58.8,29.35,SSE,166,10.0,23.0,44,0.00,CLR,SKC,0.03,WeatherDisplay:10.37,2013-05-22 13:50:00,
2013-05-22 16:00:00,82.7,59.8,29.35,SSE,156,10.0,24.0,46,0.00,CLR,SKC,0.03,WeatherDisplay:10.37,2013-05-22 14:00:00,
2013-05-22 16:10:00,82.4,59.5,29.35,SSE,147,9.0,21.0,46,0.00,CLR,SKC,0.03,WeatherDisplay:10.37,2013-05-22 14:10:00,
2013-05-22 16:20:00,81.9,59.1,29.35,SE,126,9.0,20.0,46,0.00,CLR,SKC,0.03,WeatherDisplay:10.37,2013-05-22 14:20:00,
2013-05-22 16:30:00,81.7,58.9,29.35,SSE,152,9.0,20.0,46,0.00,CLR,SKC,0.03,WeatherDisplay:10.37,2013-05-22 14:30:00,
2013-05-22 16:40:00,81.1,57.7,29.36,South,173,6.0,22.0,45,0.00,CLR,SKC,0.03,WeatherDisplay:10.37,2013-05-22 14:40:00,
2013-05-22 16:50:00,81.2,57.8,29.35,SSE,154,6.0,21.0,45,0.00,CLR,SKC,0.03,WeatherDisplay:10.37,2013-05-22 14:50:00,
2013-05-22 17:00:00,80.8,57.5,29.36,SSE,153,5.0,14.0,45,0.00,CLR,SKC,0.03,WeatherDisplay:10.37,2013-05-22 15:00:00,
2013-05-22 17:10:00,80.3,57.6,29.36,SE,126,3.0,18.0,46,0.00,CLR,SKC,0.03,WeatherDisplay:10.37,2013-05-22 15:10:00,
2013-05-22 17:20:00,79.6,57.6,29.36,SSE,158,13.0,23.0,47,0.00,CLR,SKC,0.03,WeatherDisplay:10.37,2013-05-22 15:20:00,
2013-05-22 17:30:00,78.8,57.4,29.35,South,172,9.0,23.0,48,0.00,CLR,SKC,0.03,WeatherDisplay:10.37,2013-05-22 15:30:00,
2013-05-22 17:40:00,78.5,58.3,29.35,SE,144,5.0,14.0,50,0.00,CLR,SKC,0.03,WeatherDisplay:10.37,2013-05-22 15:40:00,
2013-05-22 17:50:00,77.6,57.5,29.35,SE,134,3.0,12.0,50,0.00,CLR,SKC,0.03,WeatherDisplay:10.37,2013-05-22 15:50:00,
2013-05-22 18:00:00,76.7,57.8,29.35,SSE,160,6.0,12.0,52,0.00,CLR,SKC,0.03,WeatherDisplay:10.37,2013-05-22 16:00:00,
2013-05-22 18:10:00,76.2,58.4,29.35,South,175,2.0,8.0,54,0.00,CLR,SKC,0.03,WeatherDisplay:10.37,2013-05-22 16:10:00,
2013-05-22 18:20:00,76.0,58.2,29.34,SE,130,3.0,14.0,54,0.00,CLR,SKC,0.03,WeatherDisplay:10.37,2013-05-22 16:20:00,
2013-05-22 18:30:00,75.6,58.3,29.34,SSE,149,2.0,13.0,55,0.00,CLR,SKC,0.03,WeatherDisplay:10.37,2013-05-22 16:30:00,
2013-05-22 18:40:00,74.7,59.5,29.34,South,185,5.0,15.0,59,0.00,CLR,SKC,0.03,WeatherDisplay:10.37,2013-05-22 16:40:00,
2013-05-22 18:50:00,74.1,59.3,29.34,SSE,149,1.0,18.0,60,0.00,CLR,SKC,0.03,WeatherDisplay:10.37,2013-05-22 16:50:00,
2013-05-22 19:00:00,74.1,58.9,29.33,ESE,114,2.0,7.0,59,0.00,CLR,SKC,0.03,WeatherDisplay:10.37,2013-05-22 17:00:00,
2013-05-22 19:10:00,74.1,58.9,29.32,East,79,7.0,12.0,59,0.00,CLR,SKC,0.03,WeatherDisplay:10.37,2013-05-22 17:10:00,
2013-05-22 19:20:00,74.0,59.2,29.31,SE,135,1.0,8.0,60,0.00,CLR,SKC,0.03,WeatherDisplay:10.37,2013-05-22 17:20:00,
2013-05-22 19:30:00,73.2,60.3,29.31,South,171,5.0,8.0,64,0.00,CLR,SKC,0.03,WeatherDisplay:10.37,2013-05-22 17:30:00,
2013-05-22 19:40:00,72.7,59.8,29.29,East,94,1.0,7.0,64,0.00,CLR,SKC,0.03,WeatherDisplay:10.37,2013-05-22 17:40:00,
2013-05-22 19:50:00,72.5,59.6,29.28,ESE,117,2.0,8.0,64,0.00,CLR,SKC,0.03,WeatherDisplay:10.37,2013-05-22 17:50:00,
2013-05-22 20:00:00,72.6,59.7,29.28,South,182,1.0,6.0,64,0.00,CLR,SKC,0.03,WeatherDisplay:10.37,2013-05-22 18:00:00,
2013-05-22 20:10:00,72.4,59.6,29.28,SSW,201,2.0,6.0,64,0.00,CLR,SKC,0.03,WeatherDisplay:10.37,2013-05-22 18:10:00,
2013-05-22 20:20:00,71.9,60.3,29.29,SSW,196,6.0,10.0,67,0.00,CLR,SKC,0.03,WeatherDisplay:10.37,2013-05-22 18:20:00,
2013-05-22 20:30:00,71.2,61.3,29.30,SSW,193,5.0,11.0,71,0.00,CLR,SKC,0.03,WeatherDisplay:10.37,2013-05-22 18:30:00,
2013-05-22 20:40:00,70.4,62.1,29.31,South,176,6.0,13.0,75,0.00,CLR,SKC,0.03,WeatherDisplay:10.37,2013-05-22 18:40:00,
2013-05-22 20:50:00,68.7,62.3,29.31,South,176,2.0,12.0,80,0.02,RA,SKC,0.05,WeatherDisplay:10.37,2013-05-22 18:50:00,
2013-05-22 21:00:00,64.1,58.1,29.31,ESE,108,6.0,22.0,81,0.36,RA,SKC,0.41,WeatherDisplay:10.37,2013-05-22 19:00:00,
2013-05-22 21:10:00,63.0,57.1,29.33,NE,56,9.0,17.0,81,0.06,RA,SKC,0.47,WeatherDisplay:10.37,2013-05-22 19:10:00,
2013-05-22 21:20:00,62.4,56.5,29.33,ENE,72,1.0,18.0,81,0.04,RA,SKC,0.51,WeatherDisplay:10.37,2013-05-22 19:20:00,
2013-05-22 21:30:00,61.9,57.4,29.34,SSE,163,2.0,8.0,85,0.01,RA,SKC,0.52,WeatherDisplay:10.37,2013-05-22 19:30:00,
2013-05-22 21:40:00,62.3,58.7,29.34,SSE,163,0.0,3.0,88,0.01,RA,SKC,0.53,WeatherDisplay:10.37,2013-05-22 19:40:00,
2013-05-22 21:50:00,62.4,59.1,29.33,East,92,2.0,6.0,89,0.00,RA,SKC,0.53,WeatherDisplay:10.37,2013-05-22 19:50:00,
2013-05-22 22:00:00,62.5,58.3,29.34,ENE,60,7.0,10.0,86,0.00,RA,SKC,0.53,WeatherDisplay:10.37,2013-05-22 20:00:00,
2013-05-22 22:10:00,63.0,59.1,29.35,SE,130,3.0,10.0,87,0.00,CLR,SKC,0.53,WeatherDisplay:10.37,2013-05-22 20:10:00,
2013-05-22 22:20:00,62.8,59.2,29.35,South,172,1.0,2.0,88,0.01,RA,SKC,0.54,WeatherDisplay:10.37,2013-05-22 20:20:00,
2013-05-22 22:30:00,62.8,59.5,29.35,South,172,0.0,3.0,89,0.00,RA,SKC,0.54,WeatherDisplay:10.37,2013-05-22 20:30:00,
2013-05-22 22:40:00,62.8,59.5,29.36,South,172,1.0,3.0,89,0.00,RA,SKC,0.54,WeatherDisplay:10.37,2013-05-22 20:40:00,
2013-05-22 22:50:00,62.8,59.5,29.35,NNE,16,1.0,5.0,89,0.00,,SKC,0.54,WeatherDisplay:10.37,2013-05-22 20:50:00,
2013-05-22 23:00:00,62.9,59.9,29.35,North,2,1.0,4.0,90,0.01,RA,SKC,0.55,WeatherDisplay:10.37,2013-05-22 21:00:00,
2013-05-22 23:10:00,62.9,60.2,29.36,SW,231,0.0,2.0,91,0.00,RA,SKC,0.55,WeatherDisplay:10.37,2013-05-22 21:10:00,
2013-05-22 23:20:00,62.7,60.0,29.35,North,7,3.0,5.0,91,0.01,RA,SKC,0.56,WeatherDisplay:10.37,2013-05-22 21:20:00,
2013-05-22 23:30:00,62.1,58.2,29.35,NE,48,1.0,6.0,87,0.01,RA,SKC,0.57,WeatherDisplay:10.37,2013-05-22 21:30:00,
2013-05-22 23:40:00,62.6,56.3,29.35,ENE,76,2.0,8.0,80,0.01,RA,SKC,0.58,WeatherDisplay:10.37,2013-05-22 21:40:00,
2013-05-22 23:50:00,62.4,56.2,29.34,NE,49,3.0,13.0,80,0.01,RA,SKC,0.59,WeatherDisplay:10.37,2013-05-22 21:50:00,